sensor_id;sensor_type;location;lat;lon;timestamp;P1;durP1;ratioP1;P2;durP2;ratioP2
29452;SDS011;16424;50.956;5.320;2024-03-02T00:00:38;11.40;;;10.85;;
29452;SDS011;16424;50.956;5.320;2024-03-02T00:03:04;13.48;;;12.88;;
29452;SDS011;16424;50.956;5.320;2024-03-02T00:05:34;27.38;;;26.10;;
29452;SDS011;16424;50.956;5.320;2024-03-02T00:08:00;29.38;;;28.00;;
29452;SDS011;16424;50.956;5.320;2024-03-02T00:10:27;29.98;;;28.52;;
29452;SDS011;16424;50.956;5.320;2024-03-02T00:13:02;46.70;;;44.47;;
29452;SDS011;16424;50.956;5.320;2024-03-02T00:18:11;51.25;;;48.75;;
29452;SDS011;16424;50.956;5.320;2024-03-02T00:20:38;44.83;;;42.58;;
29452;SDS011;16424;50.956;5.320;2024-03-02T00:23:05;47.00;;;44.72;;
29452;SDS011;16424;50.956;5.320;2024-03-02T00:25:42;46.50;;;44.25;;
29452;SDS011;16424;50.956;5.320;2024-03-02T00:28:31;48.15;;;45.45;;
29452;SDS011;16424;50.956;5.320;2024-03-02T00:31:05;47.17;;;44.92;;
29452;SDS011;16424;50.956;5.320;2024-03-02T00:33:36;51.85;;;49.33;;
29452;SDS011;16424;50.956;5.320;2024-03-02T00:36:06;52.40;;;49.72;;
29452;SDS011;16424;50.956;5.320;2024-03-02T00:38:33;49.70;;;47.20;;
29452;SDS011;16424;50.956;5.320;2024-03-02T00:41:00;52.65;;;49.90;;
29452;SDS011;16424;50.956;5.320;2024-03-02T00:46:22;47.05;;;44.80;;
29452;SDS011;16424;50.956;5.320;2024-03-02T00:51:14;47.92;;;45.58;;
29452;SDS011;16424;50.956;5.320;2024-03-02T00:53:39;46.20;;;44.00;;
29452;SDS011;16424;50.956;5.320;2024-03-02T00:56:05;44.53;;;42.35;;
29452;SDS011;16424;50.956;5.320;2024-03-02T00:58:35;44.45;;;42.30;;
29452;SDS011;16424;50.956;5.320;2024-03-02T01:01:01;43.50;;;41.40;;
29452;SDS011;16424;50.956;5.320;2024-03-02T01:03:26;42.72;;;40.65;;
29452;SDS011;16424;50.956;5.320;2024-03-02T01:05:52;42.20;;;40.15;;
29452;SDS011;16424;50.956;5.320;2024-03-02T01:08:19;39.38;;;37.53;;
29452;SDS011;16424;50.956;5.320;2024-03-02T01:10:44;42.45;;;40.35;;
29452;SDS011;16424;50.956;5.320;2024-03-02T01:13:10;40.97;;;38.90;;
29452;SDS011;16424;50.956;5.320;2024-03-02T01:15:36;39.45;;;37.60;;
29452;SDS011;16424;50.956;5.320;2024-03-02T01:18:01;38.97;;;37.15;;
29452;SDS011;16424;50.956;5.320;2024-03-02T01:20:28;37.67;;;35.85;;
29452;SDS011;16424;50.956;5.320;2024-03-02T01:22:53;39.72;;;37.83;;
29452;SDS011;16424;50.956;5.320;2024-03-02T01:25:19;36.58;;;34.70;;
29452;SDS011;16424;50.956;5.320;2024-03-02T01:27:45;34.55;;;32.80;;
29452;SDS011;16424;50.956;5.320;2024-03-02T01:30:11;33.17;;;31.52;;
29452;SDS011;16424;50.956;5.320;2024-03-02T01:32:39;31.85;;;30.33;;
29452;SDS011;16424;50.956;5.320;2024-03-02T01:35:05;30.88;;;29.40;;
29452;SDS011;16424;50.956;5.320;2024-03-02T01:37:32;32.58;;;30.92;;
29452;SDS011;16424;50.956;5.320;2024-03-02T01:39:58;31.73;;;30.20;;
29452;SDS011;16424;50.956;5.320;2024-03-02T01:42:24;31.50;;;30.00;;
29452;SDS011;16424;50.956;5.320;2024-03-02T01:44:49;28.83;;;27.45;;
29452;SDS011;16424;50.956;5.320;2024-03-02T01:47:16;29.10;;;27.75;;
29452;SDS011;16424;50.956;5.320;2024-03-02T01:49:41;27.50;;;26.05;;
29452;SDS011;16424;50.956;5.320;2024-03-02T01:52:07;25.85;;;24.58;;
29452;SDS011;16424;50.956;5.320;2024-03-02T01:54:33;23.60;;;22.48;;
29452;SDS011;16424;50.956;5.320;2024-03-02T01:56:59;23.27;;;22.00;;
29452;SDS011;16424;50.956;5.320;2024-03-02T01:59:25;20.45;;;19.50;;
29452;SDS011;16424;50.956;5.320;2024-03-02T02:01:51;20.52;;;19.55;;
29452;SDS011;16424;50.956;5.320;2024-03-02T02:04:17;18.92;;;17.83;;
29452;SDS011;16424;50.956;5.320;2024-03-02T02:06:43;19.45;;;18.55;;
29452;SDS011;16424;50.956;5.320;2024-03-02T02:09:09;18.58;;;17.65;;
29452;SDS011;16424;50.956;5.320;2024-03-02T02:11:35;19.25;;;18.25;;
29452;SDS011;16424;50.956;5.320;2024-03-02T02:14:01;17.27;;;16.45;;
29452;SDS011;16424;50.956;5.320;2024-03-02T02:16:26;18.20;;;17.33;;
29452;SDS011;16424;50.956;5.320;2024-03-02T02:18:52;18.60;;;17.70;;
29452;SDS011;16424;50.956;5.320;2024-03-02T02:21:22;20.50;;;19.52;;
29452;SDS011;16424;50.956;5.320;2024-03-02T02:23:48;19.88;;;18.92;;
29452;SDS011;16424;50.956;5.320;2024-03-02T02:26:15;20.88;;;19.88;;
29452;SDS011;16424;50.956;5.320;2024-03-02T02:28:41;23.73;;;22.55;;
29452;SDS011;16424;50.956;5.320;2024-03-02T02:31:12;21.08;;;19.98;;
29452;SDS011;16424;50.956;5.320;2024-03-02T02:33:41;20.70;;;19.65;;
29452;SDS011;16424;50.956;5.320;2024-03-02T02:36:07;18.80;;;17.63;;
29452;SDS011;16424;50.956;5.320;2024-03-02T02:38:33;18.23;;;17.38;;
29452;SDS011;16424;50.956;5.320;2024-03-02T02:41:03;19.33;;;18.23;;
29452;SDS011;16424;50.956;5.320;2024-03-02T02:43:28;18.17;;;17.33;;
29452;SDS011;16424;50.956;5.320;2024-03-02T02:45:54;16.80;;;16.00;;
29452;SDS011;16424;50.956;5.320;2024-03-02T02:48:20;16.20;;;15.40;;
29452;SDS011;16424;50.956;5.320;2024-03-02T02:50:45;15.98;;;15.18;;
29452;SDS011;16424;50.956;5.320;2024-03-02T02:53:11;15.45;;;14.73;;
29452;SDS011;16424;50.956;5.320;2024-03-02T02:55:37;17.70;;;16.88;;
29452;SDS011;16424;50.956;5.320;2024-03-02T02:58:08;16.85;;;15.98;;
29452;SDS011;16424;50.956;5.320;2024-03-02T03:00:34;15.15;;;14.45;;
29452;SDS011;16424;50.956;5.320;2024-03-02T03:03:01;15.27;;;14.57;;
29452;SDS011;16424;50.956;5.320;2024-03-02T03:05:27;15.45;;;14.73;;
29452;SDS011;16424;50.956;5.320;2024-03-02T03:07:53;14.68;;;13.95;;
29452;SDS011;16424;50.956;5.320;2024-03-02T03:10:19;14.15;;;13.48;;
29452;SDS011;16424;50.956;5.320;2024-03-02T03:12:47;14.55;;;13.80;;
29452;SDS011;16424;50.956;5.320;2024-03-02T03:15:12;15.70;;;14.95;;
29452;SDS011;16424;50.956;5.320;2024-03-02T03:17:39;16.27;;;15.52;;
29452;SDS011;16424;50.956;5.320;2024-03-02T03:20:06;16.40;;;15.50;;
29452;SDS011;16424;50.956;5.320;2024-03-02T03:22:34;16.48;;;15.38;;
29452;SDS011;16424;50.956;5.320;2024-03-02T03:25:01;14.82;;;14.13;;
29452;SDS011;16424;50.956;5.320;2024-03-02T03:27:27;16.52;;;15.75;;
29452;SDS011;16424;50.956;5.320;2024-03-02T03:29:52;17.55;;;16.45;;
29452;SDS011;16424;50.956;5.320;2024-03-02T03:32:19;17.98;;;16.98;;
29452;SDS011;16424;50.956;5.320;2024-03-02T03:34:45;17.95;;;17.00;;
29452;SDS011;16424;50.956;5.320;2024-03-02T03:37:10;18.13;;;17.15;;
29452;SDS011;16424;50.956;5.320;2024-03-02T03:39:36;18.45;;;17.60;;
29452;SDS011;16424;50.956;5.320;2024-03-02T03:42:02;18.80;;;17.75;;
29452;SDS011;16424;50.956;5.320;2024-03-02T03:44:28;20.00;;;19.05;;
29452;SDS011;16424;50.956;5.320;2024-03-02T03:46:53;19.63;;;18.65;;
29452;SDS011;16424;50.956;5.320;2024-03-02T03:49:19;19.98;;;18.88;;
29452;SDS011;16424;50.956;5.320;2024-03-02T03:51:44;18.13;;;17.25;;
29452;SDS011;16424;50.956;5.320;2024-03-02T03:54:10;19.98;;;18.98;;
29452;SDS011;16424;50.956;5.320;2024-03-02T03:56:36;19.00;;;17.90;;
29452;SDS011;16424;50.956;5.320;2024-03-02T03:59:02;20.23;;;19.02;;
29452;SDS011;16424;50.956;5.320;2024-03-02T04:01:28;17.33;;;16.40;;
29452;SDS011;16424;50.956;5.320;2024-03-02T04:03:53;18.48;;;17.60;;
29452;SDS011;16424;50.956;5.320;2024-03-02T04:06:19;18.30;;;17.40;;
29452;SDS011;16424;50.956;5.320;2024-03-02T04:08:45;17.05;;;16.20;;
29452;SDS011;16424;50.956;5.320;2024-03-02T04:11:11;17.27;;;16.48;;
29452;SDS011;16424;50.956;5.320;2024-03-02T04:13:36;17.27;;;16.48;;
29452;SDS011;16424;50.956;5.320;2024-03-02T04:16:03;16.65;;;15.85;;
29452;SDS011;16424;50.956;5.320;2024-03-02T04:18:30;16.88;;;16.05;;
29452;SDS011;16424;50.956;5.320;2024-03-02T04:20:57;15.52;;;14.80;;
29452;SDS011;16424;50.956;5.320;2024-03-02T04:23:24;15.60;;;14.88;;
29452;SDS011;16424;50.956;5.320;2024-03-02T04:25:52;15.70;;;14.95;;
29452;SDS011;16424;50.956;5.320;2024-03-02T04:28:18;16.23;;;15.32;;
29452;SDS011;16424;50.956;5.320;2024-03-02T04:30:43;16.85;;;15.85;;
29452;SDS011;16424;50.956;5.320;2024-03-02T04:33:09;17.55;;;16.75;;
29452;SDS011;16424;50.956;5.320;2024-03-02T04:35:35;17.77;;;16.88;;
29452;SDS011;16424;50.956;5.320;2024-03-02T04:38:04;16.33;;;15.32;;
29452;SDS011;16424;50.956;5.320;2024-03-02T04:40:30;17.25;;;16.40;;
29452;SDS011;16424;50.956;5.320;2024-03-02T04:42:57;17.10;;;16.10;;
29452;SDS011;16424;50.956;5.320;2024-03-02T04:45:24;18.27;;;17.42;;
29452;SDS011;16424;50.956;5.320;2024-03-02T04:47:49;17.77;;;16.92;;
29452;SDS011;16424;50.956;5.320;2024-03-02T04:50:15;18.02;;;17.20;;
29452;SDS011;16424;50.956;5.320;2024-03-02T04:52:40;18.58;;;17.60;;
29452;SDS011;16424;50.956;5.320;2024-03-02T04:55:06;18.00;;;17.10;;
29452;SDS011;16424;50.956;5.320;2024-03-02T04:57:42;16.58;;;15.75;;
29452;SDS011;16424;50.956;5.320;2024-03-02T05:00:09;15.93;;;15.13;;
29452;SDS011;16424;50.956;5.320;2024-03-02T05:02:35;17.58;;;16.17;;
29452;SDS011;16424;50.956;5.320;2024-03-02T05:05:02;16.13;;;15.25;;
29452;SDS011;16424;50.956;5.320;2024-03-02T05:07:28;17.25;;;16.15;;
29452;SDS011;16424;50.956;5.320;2024-03-02T05:09:54;17.20;;;16.40;;
29452;SDS011;16424;50.956;5.320;2024-03-02T05:12:19;19.75;;;18.77;;
29452;SDS011;16424;50.956;5.320;2024-03-02T05:15:04;18.07;;;17.10;;
29452;SDS011;16424;50.956;5.320;2024-03-02T05:17:31;18.95;;;17.95;;
29452;SDS011;16424;50.956;5.320;2024-03-02T05:19:56;20.15;;;18.95;;
29452;SDS011;16424;50.956;5.320;2024-03-02T05:22:22;21.40;;;20.15;;
29452;SDS011;16424;50.956;5.320;2024-03-02T05:24:48;20.35;;;19.10;;
29452;SDS011;16424;50.956;5.320;2024-03-02T05:27:13;19.58;;;18.65;;
29452;SDS011;16424;50.956;5.320;2024-03-02T05:29:40;20.45;;;19.35;;
29452;SDS011;16424;50.956;5.320;2024-03-02T05:32:06;21.17;;;20.17;;
29452;SDS011;16424;50.956;5.320;2024-03-02T05:34:31;22.40;;;21.20;;
29452;SDS011;16424;50.956;5.320;2024-03-02T05:36:59;22.85;;;21.55;;
29452;SDS011;16424;50.956;5.320;2024-03-02T05:39:25;21.65;;;20.55;;
29452;SDS011;16424;50.956;5.320;2024-03-02T05:41:51;23.60;;;22.10;;
29452;SDS011;16424;50.956;5.320;2024-03-02T05:44:16;22.13;;;21.08;;
29452;SDS011;16424;50.956;5.320;2024-03-02T05:46:43;23.10;;;21.92;;
29452;SDS011;16424;50.956;5.320;2024-03-02T05:49:09;23.98;;;22.45;;
29452;SDS011;16424;50.956;5.320;2024-03-02T05:51:35;27.35;;;25.55;;
29452;SDS011;16424;50.956;5.320;2024-03-02T05:54:01;24.85;;;23.55;;
29452;SDS011;16424;50.956;5.320;2024-03-02T05:56:26;24.23;;;23.08;;
29452;SDS011;16424;50.956;5.320;2024-03-02T05:58:52;25.98;;;24.52;;
29452;SDS011;16424;50.956;5.320;2024-03-02T06:01:32;24.58;;;23.40;;
29452;SDS011;16424;50.956;5.320;2024-03-02T06:03:58;25.85;;;24.60;;
29452;SDS011;16424;50.956;5.320;2024-03-02T06:06:24;25.33;;;23.52;;
29452;SDS011;16424;50.956;5.320;2024-03-02T06:08:50;27.73;;;26.33;;
29452;SDS011;16424;50.956;5.320;2024-03-02T06:11:16;27.67;;;25.88;;
29452;SDS011;16424;50.956;5.320;2024-03-02T06:13:42;26.55;;;25.20;;
29452;SDS011;16424;50.956;5.320;2024-03-02T06:16:07;28.35;;;26.90;;
29452;SDS011;16424;50.956;5.320;2024-03-02T06:18:34;26.65;;;25.08;;
29452;SDS011;16424;50.956;5.320;2024-03-02T06:21:00;27.35;;;25.92;;
29452;SDS011;16424;50.956;5.320;2024-03-02T06:23:28;25.05;;;23.70;;
29452;SDS011;16424;50.956;5.320;2024-03-02T06:25:54;24.60;;;23.15;;
29452;SDS011;16424;50.956;5.320;2024-03-02T06:28:19;25.55;;;24.25;;
29452;SDS011;16424;50.956;5.320;2024-03-02T06:30:45;25.20;;;23.88;;
29452;SDS011;16424;50.956;5.320;2024-03-02T06:33:11;24.27;;;22.90;;
29452;SDS011;16424;50.956;5.320;2024-03-02T06:35:37;25.10;;;23.83;;
29452;SDS011;16424;50.956;5.320;2024-03-02T06:38:03;26.00;;;24.63;;
29452;SDS011;16424;50.956;5.320;2024-03-02T06:40:28;25.33;;;23.77;;
29452;SDS011;16424;50.956;5.320;2024-03-02T06:42:54;24.27;;;22.92;;
29452;SDS011;16424;50.956;5.320;2024-03-02T06:45:20;23.90;;;22.73;;
29452;SDS011;16424;50.956;5.320;2024-03-02T06:47:45;23.58;;;22.08;;
29452;SDS011;16424;50.956;5.320;2024-03-02T06:50:11;23.15;;;21.95;;
29452;SDS011;16424;50.956;5.320;2024-03-02T06:52:37;23.98;;;22.80;;
29452;SDS011;16424;50.956;5.320;2024-03-02T06:55:03;21.98;;;20.67;;
29452;SDS011;16424;50.956;5.320;2024-03-02T06:57:30;17.10;;;15.98;;
29452;SDS011;16424;50.956;5.320;2024-03-02T06:59:55;15.20;;;14.30;;
29452;SDS011;16424;50.956;5.320;2024-03-02T07:02:23;13.57;;;12.68;;
29452;SDS011;16424;50.956;5.320;2024-03-02T07:04:51;12.02;;;11.43;;
29452;SDS011;16424;50.956;5.320;2024-03-02T07:07:17;11.23;;;10.43;;
29452;SDS011;16424;50.956;5.320;2024-03-02T07:09:43;10.23;;;9.52;;
29452;SDS011;16424;50.956;5.320;2024-03-02T07:12:09;9.95;;;9.25;;
29452;SDS011;16424;50.956;5.320;2024-03-02T07:14:35;9.63;;;9.13;;
29452;SDS011;16424;50.956;5.320;2024-03-02T07:17:22;10.23;;;9.52;;
29452;SDS011;16424;50.956;5.320;2024-03-02T07:19:47;12.88;;;12.05;;
29452;SDS011;16424;50.956;5.320;2024-03-02T07:22:13;13.90;;;12.90;;
29452;SDS011;16424;50.956;5.320;2024-03-02T07:24:42;12.90;;;12.00;;
29452;SDS011;16424;50.956;5.320;2024-03-02T07:27:11;13.68;;;12.68;;
29452;SDS011;16424;50.956;5.320;2024-03-02T07:29:38;12.85;;;12.15;;
29452;SDS011;16424;50.956;5.320;2024-03-02T07:32:04;14.30;;;13.55;;
29452;SDS011;16424;50.956;5.320;2024-03-02T07:34:31;15.45;;;14.55;;
29452;SDS011;16424;50.956;5.320;2024-03-02T07:36:56;14.60;;;13.60;;
29452;SDS011;16424;50.956;5.320;2024-03-02T07:39:22;13.68;;;12.68;;
29452;SDS011;16424;50.956;5.320;2024-03-02T07:41:48;14.25;;;13.35;;
29452;SDS011;16424;50.956;5.320;2024-03-02T07:44:14;15.30;;;14.40;;
29452;SDS011;16424;50.956;5.320;2024-03-02T07:46:43;17.23;;;15.93;;
29452;SDS011;16424;50.956;5.320;2024-03-02T07:49:14;18.92;;;17.52;;
29452;SDS011;16424;50.956;5.320;2024-03-02T07:51:41;18.50;;;17.30;;
29452;SDS011;16424;50.956;5.320;2024-03-02T07:54:07;12.02;;;10.80;;
29452;SDS011;16424;50.956;5.320;2024-03-02T07:56:32;9.98;;;9.38;;
29452;SDS011;16424;50.956;5.320;2024-03-02T07:58:58;8.93;;;8.25;;
29452;SDS011;16424;50.956;5.320;2024-03-02T08:01:29;7.65;;;6.95;;
29452;SDS011;16424;50.956;5.320;2024-03-02T08:03:59;6.20;;;5.90;;
29452;SDS011;16424;50.956;5.320;2024-03-02T08:06:26;7.75;;;7.22;;
29452;SDS011;16424;50.956;5.320;2024-03-02T08:09:01;5.93;;;5.45;;
29452;SDS011;16424;50.956;5.320;2024-03-02T08:11:33;6.00;;;5.70;;
29452;SDS011;16424;50.956;5.320;2024-03-02T08:13:59;7.93;;;7.43;;
29452;SDS011;16424;50.956;5.320;2024-03-02T08:16:24;6.13;;;5.82;;
29452;SDS011;16424;50.956;5.320;2024-03-02T08:18:50;5.75;;;5.00;;
29452;SDS011;16424;50.956;5.320;2024-03-02T08:21:17;6.35;;;5.75;;
29452;SDS011;16424;50.956;5.320;2024-03-02T08:23:43;8.20;;;6.53;;
29452;SDS011;16424;50.956;5.320;2024-03-02T08:26:09;7.03;;;6.40;;
29452;SDS011;16424;50.956;5.320;2024-03-02T08:28:35;7.03;;;6.13;;
29452;SDS011;16424;50.956;5.320;2024-03-02T08:31:05;9.77;;;9.07;;
29452;SDS011;16424;50.956;5.320;2024-03-02T08:33:31;9.35;;;8.65;;
29452;SDS011;16424;50.956;5.320;2024-03-02T08:35:57;9.48;;;8.77;;
29452;SDS011;16424;50.956;5.320;2024-03-02T08:38:23;10.07;;;9.10;;
29452;SDS011;16424;50.956;5.320;2024-03-02T08:40:49;8.45;;;7.78;;
29452;SDS011;16424;50.956;5.320;2024-03-02T08:43:15;7.45;;;7.05;;
29452;SDS011;16424;50.956;5.320;2024-03-02T08:45:41;8.43;;;7.82;;
29452;SDS011;16424;50.956;5.320;2024-03-02T08:48:07;7.65;;;7.07;;
29452;SDS011;16424;50.956;5.320;2024-03-02T08:50:33;11.60;;;10.80;;
29452;SDS011;16424;50.956;5.320;2024-03-02T08:52:59;9.43;;;8.70;;
29452;SDS011;16424;50.956;5.320;2024-03-02T08:55:26;8.23;;;7.72;;
29452;SDS011;16424;50.956;5.320;2024-03-02T08:57:51;8.50;;;6.38;;
29452;SDS011;16424;50.956;5.320;2024-03-02T09:00:17;10.73;;;6.40;;
29452;SDS011;16424;50.956;5.320;2024-03-02T09:02:44;7.82;;;7.25;;
29452;SDS011;16424;50.956;5.320;2024-03-02T09:05:09;7.07;;;6.68;;
29452;SDS011;16424;50.956;5.320;2024-03-02T09:07:35;6.38;;;5.88;;
29452;SDS011;16424;50.956;5.320;2024-03-02T09:10:03;7.60;;;5.35;;
29452;SDS011;16424;50.956;5.320;2024-03-02T09:12:30;4.50;;;4.20;;
29452;SDS011;16424;50.956;5.320;2024-03-02T09:14:55;8.48;;;7.82;;
29452;SDS011;16424;50.956;5.320;2024-03-02T09:17:22;5.78;;;5.10;;
29452;SDS011;16424;50.956;5.320;2024-03-02T09:19:48;5.47;;;4.80;;
29452;SDS011;16424;50.956;5.320;2024-03-02T09:22:13;7.65;;;6.35;;
29452;SDS011;16424;50.956;5.320;2024-03-02T09:24:39;9.27;;;4.57;;
29452;SDS011;16424;50.956;5.320;2024-03-02T09:27:05;7.03;;;5.13;;
29452;SDS011;16424;50.956;5.320;2024-03-02T09:29:30;9.32;;;5.35;;
29452;SDS011;16424;50.956;5.320;2024-03-02T09:31:56;4.80;;;4.32;;
29452;SDS011;16424;50.956;5.320;2024-03-02T09:34:22;3.33;;;3.13;;
29452;SDS011;16424;50.956;5.320;2024-03-02T09:36:47;4.75;;;3.45;;
29452;SDS011;16424;50.956;5.320;2024-03-02T09:39:16;5.45;;;3.05;;
29452;SDS011;16424;50.956;5.320;2024-03-02T09:41:43;7.57;;;3.95;;
29452;SDS011;16424;50.956;5.320;2024-03-02T09:44:09;7.13;;;2.47;;
29452;SDS011;16424;50.956;5.320;2024-03-02T09:46:34;4.32;;;3.92;;
29452;SDS011;16424;50.956;5.320;2024-03-02T09:49:01;6.38;;;3.95;;
29452;SDS011;16424;50.956;5.320;2024-03-02T09:51:27;3.95;;;3.60;;
29452;SDS011;16424;50.956;5.320;2024-03-02T09:53:53;5.22;;;4.75;;
29452;SDS011;16424;50.956;5.320;2024-03-02T09:56:21;5.72;;;5.22;;
29452;SDS011;16424;50.956;5.320;2024-03-02T09:58:47;10.57;;;7.60;;
29452;SDS011;16424;50.956;5.320;2024-03-02T10:01:13;5.65;;;5.07;;
29452;SDS011;16424;50.956;5.320;2024-03-02T10:03:39;4.47;;;4.18;;
29452;SDS011;16424;50.956;5.320;2024-03-02T10:06:20;6.50;;;4.25;;
29452;SDS011;16424;50.956;5.320;2024-03-02T10:08:50;9.13;;;5.25;;
29452;SDS011;16424;50.956;5.320;2024-03-02T10:11:29;5.63;;;3.47;;
29452;SDS011;16424;50.956;5.320;2024-03-02T10:14:04;4.40;;;3.45;;
29452;SDS011;16424;50.956;5.320;2024-03-02T10:16:38;8.00;;;3.67;;
29452;SDS011;16424;50.956;5.320;2024-03-02T10:19:18;11.30;;;7.40;;
29452;SDS011;16424;50.956;5.320;2024-03-02T10:21:44;3.03;;;2.83;;
29452;SDS011;16424;50.956;5.320;2024-03-02T10:24:11;5.80;;;5.18;;
29452;SDS011;16424;50.956;5.320;2024-03-02T10:26:37;3.38;;;3.08;;
29452;SDS011;16424;50.956;5.320;2024-03-02T10:29:03;4.50;;;2.67;;
29452;SDS011;16424;50.956;5.320;2024-03-02T10:31:29;6.45;;;4.32;;
29452;SDS011;16424;50.956;5.320;2024-03-02T10:33:55;7.75;;;2.47;;
29452;SDS011;16424;50.956;5.320;2024-03-02T10:36:22;5.20;;;2.67;;
29452;SDS011;16424;50.956;5.320;2024-03-02T10:38:48;5.03;;;2.40;;
29452;SDS011;16424;50.956;5.320;2024-03-02T10:41:18;4.55;;;2.80;;
29452;SDS011;16424;50.956;5.320;2024-03-02T10:43:44;4.00;;;1.95;;
29452;SDS011;16424;50.956;5.320;2024-03-02T10:46:11;3.40;;;2.65;;
29452;SDS011;16424;50.956;5.320;2024-03-02T10:48:39;4.63;;;2.85;;
29452;SDS011;16424;50.956;5.320;2024-03-02T10:51:06;3.30;;;2.13;;
29452;SDS011;16424;50.956;5.320;2024-03-02T10:53:32;15.85;;;14.65;;
29452;SDS011;16424;50.956;5.320;2024-03-02T10:55:58;2.38;;;2.20;;
29452;SDS011;16424;50.956;5.320;2024-03-02T10:58:31;6.20;;;3.45;;
29452;SDS011;16424;50.956;5.320;2024-03-02T11:01:03;7.22;;;3.65;;
29452;SDS011;16424;50.956;5.320;2024-03-02T11:03:31;7.57;;;3.92;;
29452;SDS011;16424;50.956;5.320;2024-03-02T11:06:00;4.80;;;2.30;;
29452;SDS011;16424;50.956;5.320;2024-03-02T11:08:31;2.63;;;2.10;;
29452;SDS011;16424;50.956;5.320;2024-03-02T11:10:58;8.68;;;3.30;;
29452;SDS011;16424;50.956;5.320;2024-03-02T11:13:32;3.08;;;2.80;;
29452;SDS011;16424;50.956;5.320;2024-03-02T11:15:59;5.22;;;4.72;;
29452;SDS011;16424;50.956;5.320;2024-03-02T11:18:47;20.45;;;19.02;;
29452;SDS011;16424;50.956;5.320;2024-03-02T11:21:14;6.63;;;3.25;;
29452;SDS011;16424;50.956;5.320;2024-03-02T11:23:41;16.02;;;14.65;;
29452;SDS011;16424;50.956;5.320;2024-03-02T11:26:17;8.98;;;7.22;;
29452;SDS011;16424;50.956;5.320;2024-03-02T11:28:44;3.28;;;3.00;;
29452;SDS011;16424;50.956;5.320;2024-03-02T11:31:10;40.03;;;37.38;;
29452;SDS011;16424;50.956;5.320;2024-03-02T11:33:36;7.03;;;3.58;;
29452;SDS011;16424;50.956;5.320;2024-03-02T11:36:01;6.82;;;4.85;;
29452;SDS011;16424;50.956;5.320;2024-03-02T11:38:28;6.50;;;4.10;;
29452;SDS011;16424;50.956;5.320;2024-03-02T11:40:56;10.15;;;3.65;;
29452;SDS011;16424;50.956;5.320;2024-03-02T11:43:22;5.20;;;3.83;;
29452;SDS011;16424;50.956;5.320;2024-03-02T11:45:49;5.20;;;3.40;;
29452;SDS011;16424;50.956;5.320;2024-03-02T11:48:23;6.32;;;4.47;;
29452;SDS011;16424;50.956;5.320;2024-03-02T11:50:50;6.47;;;4.53;;
29452;SDS011;16424;50.956;5.320;2024-03-02T11:53:16;6.13;;;4.97;;
29452;SDS011;16424;50.956;5.320;2024-03-02T11:55:43;9.15;;;8.45;;
29452;SDS011;16424;50.956;5.320;2024-03-02T11:58:13;6.55;;;3.70;;
29452;SDS011;16424;50.956;5.320;2024-03-02T12:00:39;7.38;;;5.25;;
29452;SDS011;16424;50.956;5.320;2024-03-02T12:03:06;7.15;;;4.47;;
29452;SDS011;16424;50.956;5.320;2024-03-02T12:05:33;17.15;;;15.60;;
29452;SDS011;16424;50.956;5.320;2024-03-02T12:08:00;5.28;;;4.88;;
29452;SDS011;16424;50.956;5.320;2024-03-02T12:10:27;3.70;;;3.40;;
29452;SDS011;16424;50.956;5.320;2024-03-02T12:13:04;6.03;;;5.43;;
29452;SDS011;16424;50.956;5.320;2024-03-02T12:15:35;58.00;;;54.22;;
29452;SDS011;16424;50.956;5.320;2024-03-02T12:18:02;12.57;;;8.85;;
29452;SDS011;16424;50.956;5.320;2024-03-02T12:20:29;6.80;;;5.28;;
29452;SDS011;16424;50.956;5.320;2024-03-02T12:22:57;65.30;;;60.97;;
29452;SDS011;16424;50.956;5.320;2024-03-02T12:25:25;8.48;;;7.75;;
29452;SDS011;16424;50.956;5.320;2024-03-02T12:27:56;6.75;;;6.05;;
29452;SDS011;16424;50.956;5.320;2024-03-02T12:30:23;7.18;;;5.05;;
29452;SDS011;16424;50.956;5.320;2024-03-02T12:32:50;7.93;;;6.40;;
29452;SDS011;16424;50.956;5.320;2024-03-02T12:35:17;37.10;;;34.55;;
29452;SDS011;16424;50.956;5.320;2024-03-02T12:40:13;23.58;;;22.08;;
29452;SDS011;16424;50.956;5.320;2024-03-02T12:42:40;7.95;;;7.28;;
29452;SDS011;16424;50.956;5.320;2024-03-02T12:45:07;5.40;;;5.05;;
29452;SDS011;16424;50.956;5.320;2024-03-02T12:47:33;7.80;;;7.25;;
29452;SDS011;16424;50.956;5.320;2024-03-02T12:50:00;7.88;;;7.32;;
29452;SDS011;16424;50.956;5.320;2024-03-02T12:52:26;16.45;;;15.35;;
29452;SDS011;16424;50.956;5.320;2024-03-02T12:54:52;7.18;;;6.68;;
29452;SDS011;16424;50.956;5.320;2024-03-02T12:57:20;8.32;;;7.53;;
29452;SDS011;16424;50.956;5.320;2024-03-02T12:59:46;32.88;;;30.98;;
29452;SDS011;16424;50.956;5.320;2024-03-02T13:02:18;7.30;;;6.70;;
29452;SDS011;16424;50.956;5.320;2024-03-02T13:04:51;8.43;;;7.95;;
29452;SDS011;16424;50.956;5.320;2024-03-02T13:07:19;8.17;;;7.30;;
29452;SDS011;16424;50.956;5.320;2024-03-02T13:09:45;8.38;;;7.80;;
29452;SDS011;16424;50.956;5.320;2024-03-02T13:12:11;7.43;;;6.75;;
29452;SDS011;16424;50.956;5.320;2024-03-02T13:14:37;9.05;;;6.68;;
29452;SDS011;16424;50.956;5.320;2024-03-02T13:17:02;8.00;;;7.28;;
29452;SDS011;16424;50.956;5.320;2024-03-02T13:19:30;11.27;;;10.30;;
29452;SDS011;16424;50.956;5.320;2024-03-02T13:21:57;6.68;;;6.28;;
29452;SDS011;16424;50.956;5.320;2024-03-02T13:24:23;8.15;;;7.40;;
29452;SDS011;16424;50.956;5.320;2024-03-02T13:26:53;6.30;;;5.90;;
29452;SDS011;16424;50.956;5.320;2024-03-02T13:29:21;7.15;;;6.68;;
29452;SDS011;16424;50.956;5.320;2024-03-02T13:31:47;7.70;;;7.20;;
29452;SDS011;16424;50.956;5.320;2024-03-02T13:34:13;6.85;;;6.28;;
29452;SDS011;16424;50.956;5.320;2024-03-02T13:36:39;7.68;;;7.28;;
29452;SDS011;16424;50.956;5.320;2024-03-02T13:39:05;5.93;;;5.55;;
29452;SDS011;16424;50.956;5.320;2024-03-02T13:41:34;9.18;;;8.48;;
29452;SDS011;16424;50.956;5.320;2024-03-02T13:44:00;16.10;;;15.07;;
29452;SDS011;16424;50.956;5.320;2024-03-02T13:46:26;7.20;;;6.45;;
29452;SDS011;16424;50.956;5.320;2024-03-02T13:48:52;16.30;;;14.80;;
29452;SDS011;16424;50.956;5.320;2024-03-02T13:51:19;6.15;;;5.55;;
29452;SDS011;16424;50.956;5.320;2024-03-02T13:53:44;5.78;;;5.38;;
29452;SDS011;16424;50.956;5.320;2024-03-02T13:56:10;6.53;;;6.03;;
29452;SDS011;16424;50.956;5.320;2024-03-02T13:58:36;7.03;;;6.55;;
29452;SDS011;16424;50.956;5.320;2024-03-02T14:01:02;5.45;;;5.07;;
29452;SDS011;16424;50.956;5.320;2024-03-02T14:03:29;5.03;;;4.50;;
29452;SDS011;16424;50.956;5.320;2024-03-02T14:05:56;7.07;;;6.53;;
29452;SDS011;16424;50.956;5.320;2024-03-02T14:08:21;8.60;;;7.97;;
29452;SDS011;16424;50.956;5.320;2024-03-02T14:10:48;5.22;;;4.82;;
29452;SDS011;16424;50.956;5.320;2024-03-02T14:13:14;6.43;;;5.95;;
29452;SDS011;16424;50.956;5.320;2024-03-02T14:15:40;4.05;;;3.75;;
29452;SDS011;16424;50.956;5.320;2024-03-02T14:18:06;4.38;;;3.97;;
29452;SDS011;16424;50.956;5.320;2024-03-02T14:20:34;4.60;;;4.20;;
29452;SDS011;16424;50.956;5.320;2024-03-02T14:23:00;5.68;;;5.35;;
29452;SDS011;16424;50.956;5.320;2024-03-02T14:25:27;5.57;;;4.93;;
29452;SDS011;16424;50.956;5.320;2024-03-02T14:27:56;7.18;;;6.68;;
29452;SDS011;16424;50.956;5.320;2024-03-02T14:30:22;14.65;;;13.63;;
29452;SDS011;16424;50.956;5.320;2024-03-02T14:32:49;6.57;;;6.07;;
29452;SDS011;16424;50.956;5.320;2024-03-02T14:35:14;6.10;;;5.80;;
29452;SDS011;16424;50.956;5.320;2024-03-02T14:37:40;4.72;;;4.43;;
29452;SDS011;16424;50.956;5.320;2024-03-02T14:40:06;3.13;;;2.92;;
29452;SDS011;16424;50.956;5.320;2024-03-02T14:42:34;4.10;;;3.80;;